This is the latest recevied weather packets stored in our database for station/object K2ATL. If no packets are shown the sender has not sent any weather packets the latest 10 day(s).
| Time | Temp. | Humidity | Pressure | Rain* | Wind** | Luminosity | Snow |
|---|---|---|---|---|---|---|---|
| 1787962203 | 27.22° C | 66% | 1103 hPa | 0 mm | - | 3 W/m² | - |
| 1787961897 | 27.78° C | 66% | 1103.1 hPa | 0 mm | - | 5 W/m² | - |
| 1787961596 | 28.33° C | 66% | 1103.1 hPa | 0 mm | - | 8 W/m² | - |
| 1787961291 | 28.89° C | 63% | 1103.2 hPa | 0 mm | - | 12 W/m² | - |
| 1787960991 | 30° C | 62% | 1103.1 hPa | 0 mm | - | 16 W/m² | - |
| 1787960686 | 30° C | 61% | 1103.3 hPa | 0 mm | - | 20 W/m² | - |
| 1787960384 | 31.67° C | 58% | 1103.2 hPa | 0 mm | - | 25 W/m² | - |
| 1787960079 | 32.22° C | 57% | 1103.2 hPa | 0 mm | - | 28 W/m² | - |
| 1787959774 | 32.22° C | 58% | 1103.3 hPa | 0 mm | - | 42 W/m² | - |
| 1787959469 | 32.22° C | 55% | 1103.2 hPa | 0 mm | - | 37 W/m² | - |
| 1787959164 | 32.22° C | 57% | 1103.1 hPa | 0 mm | - | 39 W/m² | - |
| 1787958859 | 31.11° C | 58% | 1103.1 hPa | 0 mm | - | 81 W/m² | - |
| 1787958554 | 31.67° C | 58% | 1103.1 hPa | 0 mm | - | 87 W/m² | - |
| 1787958251 | 31.67° C | 56% | 1103 hPa | 0 mm | - | 79 W/m² | - |
| 1787957950 | 31.67° C | 57% | 1102.8 hPa | 0 mm | - | 101 W/m² | - |
| 1787957649 | 31.67° C | 56% | 1103 hPa | 0 mm | - | 130 W/m² | - |
| 1787957345 | 32.78° C | 56% | 1103 hPa | 0 mm | - | 126 W/m² | - |
| 1787957044 | 33.33° C | 54% | 1103.1 hPa | 0 mm | - | 141 W/m² | - |
| 1787956743 | 32.78° C | 56% | 1103.1 hPa | 0 mm | - | 189 W/m² | - |
| 1787956439 | 32.78° C | 52% | 1103 hPa | 0 mm | - | 210 W/m² | - |
| 1787956134 | 31.11° C | 61% | 1102.8 hPa | 0 mm | - | 232 W/m² | - |
| 1787955829 | 30.56° C | 59% | 1102.8 hPa | 0 mm | - | 246 W/m² | - |
| 1787955525 | 30° C | 63% | 1102.8 hPa | 0 mm | - | 271 W/m² | - |
| 1787955224 | 31.67° C | 55% | 1103 hPa | 0 mm | - | 288 W/m² | - |
| 1787954919 | 31.67° C | 57% | 1102.8 hPa | 0 mm | - | 309 W/m² | - |
* Rain latest hour (hover to see other rain measurements)
** Current wind speed in m/s (hover to see current wind gust speed)